Time;durP1;ratioP1;P1;durP2;ratioP2;P2;SDS_P1;SDS_P2;PMS_P1;PMS_P2;Temp;Humidity;BMP_temperature;BMP_pressure;BME280_temperature;BME280_humidity;BME280_pressure;Samples;Min_cycle;Max_cycle;Signal;HPM_P1;HPM_P2
2023/08/19 00:00:49;;;;;;;4.03;1.73;;;;;;;;;;5053045;28;20009;-85
2023/08/19 00:03:14;;;;;;;1.38;1.27;;;;;;;;;;5051944;28;20029;-85
2023/08/19 00:05:39;;;;;;;3.03;1.55;;;;;;;;;;5052363;28;20031;-85
2023/08/19 00:08:05;;;;;;;4.72;1.42;;;;;;;;;;5052422;28;20078;-85
2023/08/19 00:10:30;;;;;;;2.53;1.90;;;;;;;;;;5058407;28;20037;-85
2023/08/19 00:12:55;;;;;;;2.50;1.83;;;;;;;;;;5047827;28;20036;-85
2023/08/19 00:15:21;;;;;;;2.22;1.70;;;;;;;;;;5059446;28;20029;-85
2023/08/19 00:17:47;;;;;;;4.50;1.75;;;;;;;;;;5056166;28;20158;-84
2023/08/19 00:20:12;;;;;;;2.78;1.52;;;;;;;;;;5051398;28;20450;-85
2023/08/19 00:22:37;;;;;;;2.95;1.75;;;;;;;;;;5056295;28;20025;-85
2023/08/19 00:25:07;;;;;;;2.47;1.92;;;;;;;;;;5055845;28;20083;-84
2023/08/19 00:27:33;;;;;;;3.35;1.85;;;;;;;;;;5059306;28;20061;-85
2023/08/19 00:29:58;;;;;;;3.33;1.60;;;;;;;;;;5055614;28;20044;-85
2023/08/19 00:32:23;;;;;;;2.42;1.88;;;;;;;;;;5045640;28;20035;-87
2023/08/19 00:34:49;;;;;;;1.70;1.60;;;;;;;;;;5053557;28;20045;-86
2023/08/19 00:37:14;;;;;;;2.85;1.55;;;;;;;;;;5055129;28;20025;-86
2023/08/19 00:39:40;;;;;;;2.45;1.88;;;;;;;;;;5056089;28;20542;-85
2023/08/19 00:42:06;;;;;;;5.97;2.10;;;;;;;;;;5054309;28;20365;-85
2023/08/19 00:44:34;;;;;;;1.60;1.42;;;;;;;;;;5063477;28;20048;-86
2023/08/19 00:47:01;;;;;;;1.58;1.48;;;;;;;;;;5053150;28;20035;-86
2023/08/19 00:49:27;;;;;;;2.58;2.00;;;;;;;;;;5052737;28;20064;-85
2023/08/19 00:51:54;;;;;;;5.30;1.88;;;;;;;;;;5053613;28;20029;-86
2023/08/19 00:54:19;;;;;;;3.40;1.95;;;;;;;;;;5055144;28;20524;-85
2023/08/19 00:56:45;;;;;;;2.17;1.70;;;;;;;;;;5051286;28;20025;-85
2023/08/19 00:59:10;;;;;;;2.78;1.63;;;;;;;;;;5054208;28;20028;-85
2023/08/19 01:01:36;;;;;;;1.92;1.60;;;;;;;;;;5059282;28;20017;-85
2023/08/19 01:04:01;;;;;;;3.33;1.85;;;;;;;;;;5059478;28;20024;-85
2023/08/19 01:06:38;;;;;;;2.05;1.55;;;;;;;;;;5052902;28;20466;-84
2023/08/19 01:09:41;;;;;;;2.60;1.75;;;;;;;;;;5057776;28;20839;-85
2023/08/19 01:12:34;;;;;;;3.22;2.03;;;;;;;;;;5056766;28;20036;-85
2023/08/19 01:14:59;;;;;;;2.15;1.70;;;;;;;;;;5059396;28;20088;-84
2023/08/19 01:17:29;;;;;;;2.08;1.70;;;;;;;;;;5053707;28;20060;-85
2023/08/19 01:19:56;;;;;;;2.83;1.83;;;;;;;;;;5059913;28;20039;-85
2023/08/19 01:22:37;;;;;;;1.65;1.48;;;;;;;;;;5052462;28;20025;-85
2023/08/19 01:25:04;;;;;;;3.43;2.00;;;;;;;;;;5055374;28;20108;-85
2023/08/19 01:27:30;;;;;;;1.70;1.60;;;;;;;;;;5054305;28;20034;-84
2023/08/19 01:29:58;;;;;;;2.13;1.90;;;;;;;;;;5057547;28;20112;-84
2023/08/19 01:32:24;;;;;;;2.28;1.88;;;;;;;;;;5059268;28;20559;-85
2023/08/19 01:34:51;;;;;;;1.98;1.60;;;;;;;;;;5054421;28;20029;-85
2023/08/19 01:37:28;;;;;;;1.55;1.40;;;;;;;;;;5060808;28;20063;-84
2023/08/19 01:39:56;;;;;;;1.63;1.52;;;;;;;;;;5056566;28;20024;-85
2023/08/19 01:42:23;;;;;;;2.50;1.70;;;;;;;;;;5056108;28;20021;-85
2023/08/19 01:44:49;;;;;;;1.83;1.50;;;;;;;;;;5059942;28;20103;-85
2023/08/19 01:47:16;;;;;;;3.40;1.92;;;;;;;;;;5055944;28;20060;-85
2023/08/19 01:49:45;;;;;;;1.10;1.10;;;;;;;;;;5065800;28;20462;-85
2023/08/19 01:52:12;;;;;;;2.25;1.60;;;;;;;;;;5065712;28;20078;-85
2023/08/19 01:54:38;;;;;;;4.43;1.80;;;;;;;;;;5061760;28;20151;-85
2023/08/19 01:57:05;;;;;;;1.98;1.75;;;;;;;;;;5055257;28;20045;-85
2023/08/19 01:59:30;;;;;;;2.53;1.77;;;;;;;;;;5065416;28;20085;-85
2023/08/19 02:01:56;;;;;;;3.03;1.50;;;;;;;;;;5065222;28;20112;-85
2023/08/19 02:04:21;;;;;;;1.50;1.40;;;;;;;;;;5060570;28;20112;-85
2023/08/19 02:06:46;;;;;;;2.65;1.80;;;;;;;;;;5061520;28;20032;-84
2023/08/19 02:09:12;;;;;;;2.17;1.80;;;;;;;;;;5060348;28;20066;-85
2023/08/19 02:11:37;;;;;;;3.08;1.77;;;;;;;;;;5055278;28;20017;-85
2023/08/19 02:14:03;;;;;;;1.40;1.30;;;;;;;;;;5057899;28;20157;-85
2023/08/19 02:16:29;;;;;;;2.10;1.77;;;;;;;;;;5064028;28;20431;-85
2023/08/19 02:18:57;;;;;;;2.30;1.52;;;;;;;;;;5067204;28;20023;-84
2023/08/19 02:21:22;;;;;;;3.15;1.90;;;;;;;;;;5065837;28;20036;-84
2023/08/19 02:23:47;;;;;;;2.00;1.90;;;;;;;;;;5060083;28;20024;-83
2023/08/19 02:26:13;;;;;;;2.03;1.90;;;;;;;;;;5057176;28;20021;-84
2023/08/19 02:28:38;;;;;;;1.50;1.40;;;;;;;;;;5062842;28;20108;-84
2023/08/19 02:31:03;;;;;;;2.65;1.70;;;;;;;;;;5054335;28;20057;-83
2023/08/19 02:33:29;;;;;;;2.25;1.67;;;;;;;;;;5065808;23;20048;-84
2023/08/19 02:35:54;;;;;;;3.30;1.88;;;;;;;;;;5079323;28;20082;-83
2023/08/19 02:38:20;;;;;;;13.63;3.00;;;;;;;;;;5073503;28;20028;-83
2023/08/19 02:40:49;;;;;;;6.00;2.50;;;;;;;;;;5076561;28;20388;-83
2023/08/19 02:43:15;;;;;;;6.28;2.58;;;;;;;;;;5078367;28;20024;-83
2023/08/19 02:45:41;;;;;;;2.67;2.38;;;;;;;;;;5071236;28;20020;-85
2023/08/19 02:48:07;;;;;;;4.30;2.30;;;;;;;;;;5074546;28;20024;-84
2023/08/19 02:54:04;;;;;;;6.60;2.40;;;;;;;;;;5073424;28;20097;-83
2023/08/19 02:56:30;;;;;;;5.93;2.90;;;;;;;;;;5070969;28;20067;-82
2023/08/19 02:58:55;;;;;;;4.70;2.58;;;;;;;;;;5071004;28;20077;-84
2023/08/19 03:01:20;;;;;;;3.97;2.10;;;;;;;;;;5075158;28;20121;-83
2023/08/19 03:03:46;;;;;;;2.30;2.05;;;;;;;;;;5076371;28;20024;-83
2023/08/19 03:06:11;;;;;;;3.20;2.33;;;;;;;;;;5073759;28;20097;-83
2023/08/19 03:08:36;;;;;;;3.50;2.38;;;;;;;;;;5077144;28;20055;-84
2023/08/19 03:11:02;;;;;;;5.22;2.63;;;;;;;;;;5075885;28;20028;-82
2023/08/19 03:13:27;;;;;;;5.05;3.08;;;;;;;;;;5075194;28;20477;-83
2023/08/19 03:15:57;;;;;;;5.55;2.75;;;;;;;;;;5071480;28;20024;-83
2023/08/19 03:18:23;;;;;;;10.07;2.83;;;;;;;;;;5071940;28;20392;-84
2023/08/19 03:20:55;;;;;;;6.43;2.97;;;;;;;;;;5070337;28;20031;-82
2023/08/19 03:23:20;;;;;;;6.90;2.65;;;;;;;;;;5068909;28;20035;-83
2023/08/19 03:25:49;;;;;;;2.85;2.28;;;;;;;;;;5073906;28;20020;-83
2023/08/19 03:28:15;;;;;;;3.97;2.17;;;;;;;;;;5072581;28;20111;-82
2023/08/19 03:30:40;;;;;;;4.72;2.55;;;;;;;;;;5073636;28;20417;-82
2023/08/19 03:33:05;;;;;;;2.97;2.10;;;;;;;;;;5078511;28;20020;-84
2023/08/19 03:35:33;;;;;;;4.85;2.70;;;;;;;;;;5073441;28;20044;-84
2023/08/19 03:37:58;;;;;;;9.30;2.83;;;;;;;;;;5068089;28;20040;-84
2023/08/19 03:40:24;;;;;;;4.60;2.55;;;;;;;;;;5076433;28;20036;-83
2023/08/19 03:42:49;;;;;;;4.30;2.78;;;;;;;;;;5070402;28;20069;-85
2023/08/19 03:45:14;;;;;;;3.28;2.20;;;;;;;;;;5071608;28;20488;-83
2023/08/19 03:47:40;;;;;;;3.00;2.40;;;;;;;;;;5073344;28;20066;-83
2023/08/19 03:50:05;;;;;;;5.60;2.47;;;;;;;;;;5072933;28;20417;-83
2023/08/19 03:52:31;;;;;;;4.57;2.53;;;;;;;;;;5073153;28;20036;-82
2023/08/19 03:54:56;;;;;;;3.75;2.35;;;;;;;;;;5073673;28;20987;-83
2023/08/19 03:57:21;;;;;;;3.72;2.97;;;;;;;;;;5073565;28;20066;-84
2023/08/19 03:59:50;;;;;;;4.18;2.70;;;;;;;;;;5074125;28;20054;-85
2023/08/19 04:02:16;;;;;;;4.50;2.50;;;;;;;;;;5071196;28;20409;-84
2023/08/19 04:04:56;;;;;;;6.75;2.45;;;;;;;;;;5071735;28;20470;-83
2023/08/19 04:07:21;;;;;;;5.18;2.05;;;;;;;;;;5075562;28;20478;-85
2023/08/19 04:09:47;;;;;;;4.22;1.98;;;;;;;;;;5069415;28;20073;-82
2023/08/19 04:12:12;;;;;;;2.10;1.90;;;;;;;;;;5077450;28;20370;-84
2023/08/19 04:14:37;;;;;;;5.13;1.90;;;;;;;;;;5075983;28;20024;-83
2023/08/19 04:17:03;;;;;;;3.33;2.10;;;;;;;;;;5074839;28;20035;-84
2023/08/19 04:19:28;;;;;;;1.98;1.88;;;;;;;;;;5073430;28;20341;-85
2023/08/19 04:21:53;;;;;;;1.58;1.48;;;;;;;;;;5070003;28;20381;-84
2023/08/19 04:24:19;;;;;;;2.30;1.83;;;;;;;;;;5070659;28;20032;-84
2023/08/19 04:26:44;;;;;;;4.05;2.03;;;;;;;;;;5065446;28;20571;-83
2023/08/19 04:29:09;;;;;;;1.85;1.65;;;;;;;;;;5075620;28;20028;-84
2023/08/19 04:31:35;;;;;;;3.63;2.08;;;;;;;;;;5080891;28;20116;-83
2023/08/19 04:34:00;;;;;;;5.35;2.17;;;;;;;;;;5071056;28;20039;-84
2023/08/19 04:36:25;;;;;;;2.97;2.10;;;;;;;;;;5063255;28;20123;-84
2023/08/19 04:38:51;;;;;;;6.93;2.33;;;;;;;;;;5079733;28;20058;-86
2023/08/19 04:41:16;;;;;;;3.17;2.17;;;;;;;;;;5072983;28;20012;-83
2023/08/19 04:43:42;;;;;;;2.90;2.17;;;;;;;;;;5068371;28;20024;-83
2023/08/19 04:46:07;;;;;;;5.57;2.25;;;;;;;;;;5069335;28;20450;-83
2023/08/19 04:48:32;;;;;;;2.97;1.90;;;;;;;;;;5071879;28;20059;-86
2023/08/19 04:51:00;;;;;;;3.90;1.92;;;;;;;;;;5073444;28;20025;-83
2023/08/19 04:53:25;;;;;;;3.70;2.05;;;;;;;;;;5072912;28;20143;-86
2023/08/19 04:56:02;;;;;;;4.32;2.50;;;;;;;;;;5070306;28;20104;-82
2023/08/19 04:58:28;;;;;;;2.80;2.03;;;;;;;;;;5075396;28;20032;-85
2023/08/19 05:00:53;;;;;;;3.15;2.15;;;;;;;;;;5074778;28;20115;-85
2023/08/19 05:03:18;;;;;;;2.53;2.33;;;;;;;;;;5078583;28;20050;-82
2023/08/19 05:05:44;;;;;;;3.72;2.30;;;;;;;;;;5070139;28;20069;-82
2023/08/19 05:08:10;;;;;;;2.58;1.88;;;;;;;;;;5072474;28;20024;-85
2023/08/19 05:10:36;;;;;;;2.90;2.10;;;;;;;;;;5076523;28;20035;-83
2023/08/19 05:13:01;;;;;;;4.32;2.05;;;;;;;;;;5080270;28;20025;-86
2023/08/19 05:15:27;;;;;;;2.08;1.88;;;;;;;;;;5075363;28;20106;-84
2023/08/19 05:17:52;;;;;;;2.95;2.20;;;;;;;;;;5075205;28;20599;-84
2023/08/19 05:20:17;;;;;;;4.03;2.30;;;;;;;;;;5076186;28;20478;-84
2023/08/19 05:22:43;;;;;;;2.70;2.20;;;;;;;;;;5073748;28;20025;-84
2023/08/19 05:25:09;;;;;;;2.40;2.10;;;;;;;;;;5075547;28;20096;-82
2023/08/19 05:27:34;;;;;;;3.30;2.05;;;;;;;;;;5079571;28;20039;-83
2023/08/19 05:30:00;;;;;;;4.72;2.10;;;;;;;;;;5075402;28;20028;-84
2023/08/19 05:32:25;;;;;;;2.40;1.98;;;;;;;;;;5068117;28;20056;-83
2023/08/19 05:34:50;;;;;;;2.15;1.88;;;;;;;;;;5071756;28;20025;-86
2023/08/19 05:37:16;;;;;;;2.60;2.17;;;;;;;;;;5080752;28;20051;-85
2023/08/19 05:39:41;;;;;;;4.80;2.33;;;;;;;;;;5078745;28;20057;-82
2023/08/19 05:42:06;;;;;;;3.30;2.65;;;;;;;;;;5074243;28;20103;-83
2023/08/19 05:44:32;;;;;;;2.15;1.90;;;;;;;;;;5077918;28;20066;-85
2023/08/19 05:46:57;;;;;;;4.85;2.42;;;;;;;;;;5074637;28;20093;-85
2023/08/19 05:49:23;;;;;;;3.53;1.92;;;;;;;;;;5072120;28;20091;-84
2023/08/19 05:51:48;;;;;;;3.90;2.25;;;;;;;;;;5077909;28;20083;-84
2023/08/19 05:54:13;;;;;;;3.08;1.90;;;;;;;;;;5078905;28;20120;-82
2023/08/19 05:56:39;;;;;;;3.35;2.15;;;;;;;;;;5076113;28;20111;-83
2023/08/19 05:59:04;;;;;;;2.03;1.80;;;;;;;;;;5071057;28;20116;-83
2023/08/19 06:01:29;;;;;;;3.17;2.10;;;;;;;;;;5077333;28;20052;-85
2023/08/19 06:03:55;;;;;;;3.65;2.42;;;;;;;;;;5073881;28;20566;-83
2023/08/19 06:06:20;;;;;;;3.50;2.33;;;;;;;;;;5075173;28;20028;-86
2023/08/19 06:08:46;;;;;;;2.33;1.98;;;;;;;;;;5078981;28;20028;-85
2023/08/19 06:11:11;;;;;;;2.33;1.58;;;;;;;;;;5074004;28;20554;-83
2023/08/19 06:13:37;;;;;;;2.67;1.73;;;;;;;;;;5070285;28;20028;-85
2023/08/19 06:16:04;;;;;;;3.75;2.00;;;;;;;;;;5070899;28;20557;-84
2023/08/19 06:18:30;;;;;;;2.83;2.10;;;;;;;;;;5077688;28;20587;-86
2023/08/19 06:20:56;;;;;;;5.50;2.10;;;;;;;;;;5071783;28;20032;-85
2023/08/19 06:23:22;;;;;;;2.10;1.90;;;;;;;;;;5073181;28;20017;-85
2023/08/19 06:25:49;;;;;;;2.80;2.28;;;;;;;;;;5076885;28;20050;-84
2023/08/19 06:28:15;;;;;;;2.92;1.90;;;;;;;;;;5074840;28;20032;-85
2023/08/19 06:30:41;;;;;;;2.92;2.00;;;;;;;;;;5079513;28;20105;-83
2023/08/19 06:33:07;;;;;;;2.08;1.70;;;;;;;;;;5076363;28;20075;-85
2023/08/19 06:35:32;;;;;;;2.28;1.88;;;;;;;;;;5074359;28;20039;-85
2023/08/19 06:38:03;;;;;;;2.17;1.95;;;;;;;;;;5074326;28;20038;-86
2023/08/19 06:40:33;;;;;;;1.73;1.63;;;;;;;;;;5076918;28;20032;-86
2023/08/19 06:43:00;;;;;;;3.78;1.80;;;;;;;;;;5072726;28;20136;-84
2023/08/19 06:45:26;;;;;;;2.50;1.88;;;;;;;;;;5075530;28;20052;-84
2023/08/19 06:47:53;;;;;;;2.80;1.58;;;;;;;;;;5075227;28;20451;-84
2023/08/19 06:50:19;;;;;;;1.83;1.70;;;;;;;;;;5077239;28;20063;-86
2023/08/19 06:52:45;;;;;;;4.00;2.20;;;;;;;;;;5073585;28;20059;-85
2023/08/19 06:55:14;;;;;;;2.53;1.83;;;;;;;;;;5089891;28;20568;-86
2023/08/19 06:57:47;;;;;;;3.28;2.10;;;;;;;;;;5077946;28;20031;-85
2023/08/19 07:00:14;;;;;;;2.75;1.85;;;;;;;;;;5071753;28;20087;-84
2023/08/19 07:02:39;;;;;;;2.10;1.60;;;;;;;;;;5073533;28;20028;-85
2023/08/19 07:05:12;;;;;;;1.75;1.60;;;;;;;;;;5071628;28;20024;-85
2023/08/19 07:07:39;;;;;;;5.18;2.10;;;;;;;;;;5078507;28;20036;-85
2023/08/19 07:10:05;;;;;;;4.63;2.17;;;;;;;;;;5078143;28;20036;-84
2023/08/19 07:12:32;;;;;;;3.92;1.98;;;;;;;;;;5082770;28;20060;-85
2023/08/19 07:14:58;;;;;;;2.72;1.67;;;;;;;;;;5078822;28;20135;-86
2023/08/19 07:17:28;;;;;;;4.22;1.95;;;;;;;;;;5078391;28;20033;-85
2023/08/19 07:19:54;;;;;;;3.03;1.98;;;;;;;;;;5070309;28;20025;-85
2023/08/19 07:22:21;;;;;;;1.95;1.75;;;;;;;;;;5069476;28;20016;-86
2023/08/19 07:24:50;;;;;;;4.20;1.90;;;;;;;;;;5078644;28;20028;-84
2023/08/19 07:27:18;;;;;;;1.60;1.50;;;;;;;;;;5076837;28;20031;-86
2023/08/19 07:29:46;;;;;;;2.33;1.67;;;;;;;;;;5079459;28;20051;-83
2023/08/19 07:32:13;;;;;;;2.90;1.92;;;;;;;;;;5074285;28;20520;-84
2023/08/19 07:34:39;;;;;;;3.15;1.90;;;;;;;;;;5079117;28;20124;-87
2023/08/19 07:37:05;;;;;;;1.98;1.83;;;;;;;;;;5075580;28;20066;-85
2023/08/19 07:39:30;;;;;;;4.50;2.10;;;;;;;;;;5081378;28;20048;-86
2023/08/19 07:41:55;;;;;;;6.15;1.92;;;;;;;;;;5078490;28;20203;-85
2023/08/19 07:44:21;;;;;;;2.25;1.73;;;;;;;;;;5077713;28;20027;-84
2023/08/19 07:46:46;;;;;;;2.75;1.88;;;;;;;;;;5087283;28;20032;-85
2023/08/19 07:49:11;;;;;;;6.95;1.83;;;;;;;;;;5078370;28;20017;-86
2023/08/19 07:51:37;;;;;;;2.07;1.73;;;;;;;;;;5080605;28;20028;-85
2023/08/19 07:54:02;;;;;;;2.10;1.80;;;;;;;;;;5074308;28;20414;-86
2023/08/19 07:56:27;;;;;;;2.45;1.60;;;;;;;;;;5079588;28;20040;-85
2023/08/19 07:58:53;;;;;;;3.33;1.70;;;;;;;;;;5079513;28;20024;-87
2023/08/19 08:01:19;;;;;;;2.05;1.50;;;;;;;;;;5078465;28;20027;-85
2023/08/19 08:03:45;;;;;;;2.20;2.00;;;;;;;;;;5077010;28;20028;-86
2023/08/19 08:06:11;;;;;;;2.05;1.40;;;;;;;;;;5074239;28;20027;-85
2023/08/19 08:08:36;;;;;;;3.28;1.48;;;;;;;;;;5075868;28;20016;-86
2023/08/19 08:11:02;;;;;;;3.50;1.70;;;;;;;;;;5073559;28;20035;-87
2023/08/19 08:13:28;;;;;;;2.53;1.60;;;;;;;;;;5072546;28;20036;-85
2023/08/19 08:15:54;;;;;;;1.63;1.52;;;;;;;;;;5078860;28;20408;-85
2023/08/19 08:18:19;;;;;;;2.22;1.48;;;;;;;;;;5073233;28;20046;-85
2023/08/19 08:20:44;;;;;;;1.60;1.50;;;;;;;;;;5072158;28;20131;-85
2023/08/19 08:23:10;;;;;;;2.60;1.70;;;;;;;;;;5077378;28;20040;-85
2023/08/19 08:25:37;;;;;;;3.00;1.70;;;;;;;;;;5074743;28;20141;-85
2023/08/19 08:28:02;;;;;;;2.78;1.70;;;;;;;;;;5086297;28;20477;-86
2023/08/19 08:30:28;;;;;;;4.22;2.03;;;;;;;;;;5070602;28;20121;-84
2023/08/19 08:32:53;;;;;;;3.13;1.42;;;;;;;;;;5080459;28;20105;-87
2023/08/19 08:35:18;;;;;;;2.03;1.63;;;;;;;;;;5075818;28;20413;-85
2023/08/19 08:37:44;;;;;;;2.60;2.03;;;;;;;;;;5077427;28;20028;-83
2023/08/19 08:40:09;;;;;;;2.05;1.70;;;;;;;;;;5076177;28;20048;-85
2023/08/19 08:42:35;;;;;;;1.92;1.67;;;;;;;;;;5072390;28;20084;-84
2023/08/19 08:45:01;;;;;;;3.42;1.83;;;;;;;;;;5073829;28;20020;-84
2023/08/19 08:47:26;;;;;;;2.70;2.00;;;;;;;;;;5069710;28;20123;-85
2023/08/19 08:49:53;;;;;;;1.52;1.42;;;;;;;;;;5080141;28;20028;-85
2023/08/19 08:52:20;;;;;;;2.03;1.73;;;;;;;;;;5076526;28;20052;-84
2023/08/19 08:54:47;;;;;;;4.35;1.83;;;;;;;;;;5075656;28;20107;-85
2023/08/19 08:57:16;;;;;;;1.60;1.50;;;;;;;;;;5074636;28;20095;-84
2023/08/19 08:59:42;;;;;;;4.93;1.77;;;;;;;;;;5070346;28;20095;-84
2023/08/19 09:02:10;;;;;;;4.10;1.67;;;;;;;;;;5072638;28;20028;-85
2023/08/19 09:04:38;;;;;;;1.67;1.50;;;;;;;;;;5074664;28;20047;-82
2023/08/19 09:07:12;;;;;;;4.03;1.92;;;;;;;;;;5078076;28;20040;-86
2023/08/19 09:09:40;;;;;;;6.20;1.85;;;;;;;;;;5075060;28;20040;-84
2023/08/19 09:12:11;;;;;;;2.58;1.42;;;;;;;;;;5074884;28;20048;-84
2023/08/19 09:14:44;;;;;;;2.95;1.70;;;;;;;;;;5073079;28;20397;-85
2023/08/19 09:17:14;;;;;;;3.75;1.80;;;;;;;;;;5072938;28;20108;-83
2023/08/19 09:19:40;;;;;;;4.13;1.80;;;;;;;;;;5070915;28;20043;-86
2023/08/19 09:22:09;;;;;;;2.30;1.80;;;;;;;;;;5073339;28;20025;-84
2023/08/19 09:24:35;;;;;;;3.28;2.00;;;;;;;;;;5074154;28;20032;-86
2023/08/19 09:27:01;;;;;;;2.20;1.60;;;;;;;;;;5076002;28;20029;-86
2023/08/19 09:29:26;;;;;;;2.65;1.75;;;;;;;;;;5072859;28;20531;-86
2023/08/19 09:31:53;;;;;;;2.50;1.63;;;;;;;;;;5077300;28;20059;-86
2023/08/19 09:34:19;;;;;;;1.80;1.70;;;;;;;;;;5074806;28;20031;-85
2023/08/19 09:36:44;;;;;;;2.25;1.58;;;;;;;;;;5069623;28;20036;-84
2023/08/19 09:39:09;;;;;;;2.97;1.90;;;;;;;;;;5073508;28;20025;-85
2023/08/19 09:41:37;;;;;;;1.75;1.65;;;;;;;;;;5073533;28;20367;-84
2023/08/19 09:44:11;;;;;;;2.08;1.40;;;;;;;;;;5072637;28;20028;-85
2023/08/19 09:46:36;;;;;;;2.50;1.73;;;;;;;;;;5073523;28;20020;-83
2023/08/19 09:49:03;;;;;;;3.17;2.10;;;;;;;;;;5072284;28;20152;-86
2023/08/19 09:51:29;;;;;;;2.45;1.65;;;;;;;;;;5076056;28;20036;-86
2023/08/19 09:53:55;;;;;;;3.92;1.80;;;;;;;;;;5071372;28;20024;-85
2023/08/19 09:56:22;;;;;;;2.20;1.42;;;;;;;;;;5079847;28;20061;-86
2023/08/19 09:58:52;;;;;;;2.53;1.90;;;;;;;;;;5073666;28;20135;-85
2023/08/19 10:01:20;;;;;;;2.28;1.65;;;;;;;;;;5076421;28;20027;-85
2023/08/19 10:03:47;;;;;;;2.03;1.83;;;;;;;;;;5073897;28;20078;-85
2023/08/19 10:06:15;;;;;;;2.05;1.85;;;;;;;;;;5065713;28;20417;-84
2023/08/19 10:08:44;;;;;;;3.78;1.73;;;;;;;;;;5073191;28;20158;-84
2023/08/19 10:11:12;;;;;;;6.95;2.08;;;;;;;;;;5072582;28;20055;-83
2023/08/19 10:13:37;;;;;;;3.67;1.95;;;;;;;;;;5068965;28;20020;-82
2023/08/19 10:16:04;;;;;;;3.92;2.00;;;;;;;;;;5071316;28;20040;-83
2023/08/19 10:18:35;;;;;;;3.30;2.00;;;;;;;;;;5080509;28;20028;-84
2023/08/19 10:21:04;;;;;;;4.35;1.83;;;;;;;;;;5069852;28;20385;-83
2023/08/19 10:23:30;;;;;;;1.85;1.50;;;;;;;;;;5068645;28;20028;-82
2023/08/19 10:25:56;;;;;;;6.15;1.60;;;;;;;;;;5089133;28;20020;-85
2023/08/19 10:28:27;;;;;;;3.85;1.92;;;;;;;;;;5081908;28;20035;-85
2023/08/19 10:31:09;;;;;;;;;;;;;;;;;;5075541;28;20083;-85
2023/08/19 10:33:45;;;;;;;2.35;1.67;;;;;;;;;;5082089;28;19920;-84
2023/08/19 10:36:16;;;;;;;1.98;1.83;;;;;;;;;;5077000;28;20093;-83
2023/08/19 10:38:46;;;;;;;3.10;1.80;;;;;;;;;;5071968;28;20441;-86
2023/08/19 10:41:36;;;;;;;1.63;1.52;;;;;;;;;;5071893;28;20020;-87
2023/08/19 10:44:02;;;;;;;2.20;1.83;;;;;;;;;;5074694;28;20553;-85
2023/08/19 10:46:33;;;;;;;2.58;1.98;;;;;;;;;;5071218;28;20037;-86
2023/08/19 10:48:58;;;;;;;2.15;1.70;;;;;;;;;;5072681;28;20274;-86
2023/08/19 10:51:57;;;;;;;1.73;1.60;;;;;;;;;;5071968;28;20635;-86
2023/08/19 10:54:26;;;;;;;2.80;1.88;;;;;;;;;;5067552;28;20035;-86
2023/08/19 10:57:22;;;;;;;2.65;1.60;;;;;;;;;;5073462;28;20024;-86
2023/08/19 10:59:54;;;;;;;2.13;1.75;;;;;;;;;;5073422;28;20512;-85
2023/08/19 11:02:19;;;;;;;1.70;1.60;;;;;;;;;;5075018;28;20067;-86
2023/08/19 11:04:49;;;;;;;1.92;1.75;;;;;;;;;;5075226;28;20074;-85
2023/08/19 11:07:15;;;;;;;1.67;1.42;;;;;;;;;;5078159;28;20027;-86
2023/08/19 11:09:42;;;;;;;4.18;1.73;;;;;;;;;;5074198;28;20024;-84
2023/08/19 11:12:08;;;;;;;2.08;1.55;;;;;;;;;;5073438;28;20017;-85
2023/08/19 11:14:34;;;;;;;1.55;1.45;;;;;;;;;;5078072;28;20558;-86
2023/08/19 11:16:59;;;;;;;1.80;1.70;;;;;;;;;;5068734;28;20039;-86
2023/08/19 11:19:25;;;;;;;4.32;1.73;;;;;;;;;;5073600;28;20036;-86
2023/08/19 11:21:51;;;;;;;3.55;1.88;;;;;;;;;;5073349;28;20061;-85
2023/08/19 11:24:16;;;;;;;2.08;1.60;;;;;;;;;;5070978;28;20043;-86
2023/08/19 11:26:43;;;;;;;1.50;1.40;;;;;;;;;;5073036;28;20036;-86
2023/08/19 11:29:09;;;;;;;2.45;2.03;;;;;;;;;;5073842;28;20464;-85
2023/08/19 11:31:36;;;;;;;3.38;2.10;;;;;;;;;;5070161;28;20029;-86
2023/08/19 11:34:09;;;;;;;3.50;1.65;;;;;;;;;;5070087;28;20375;-84
2023/08/19 11:36:36;;;;;;;1.90;1.67;;;;;;;;;;5074005;28;20043;-85
2023/08/19 11:39:03;;;;;;;2.03;1.60;;;;;;;;;;5070350;28;20033;-85
2023/08/19 11:41:29;;;;;;;1.80;1.63;;;;;;;;;;5075163;28;20441;-85
2023/08/19 11:43:55;;;;;;;11.95;3.35;;;;;;;;;;5073487;28;20522;-84
2023/08/19 11:46:20;;;;;;;4.65;1.90;;;;;;;;;;5072866;28;20020;-85
2023/08/19 11:48:46;;;;;;;4.03;2.05;;;;;;;;;;5077924;28;20164;-86
2023/08/19 11:51:12;;;;;;;3.67;1.77;;;;;;;;;;5072812;28;20696;-83
2023/08/19 11:53:39;;;;;;;6.25;1.90;;;;;;;;;;5080407;28;20020;-85
2023/08/19 11:56:04;;;;;;;2.63;2.08;;;;;;;;;;5080830;28;20046;-83
2023/08/19 11:58:37;;;;;;;2.60;1.90;;;;;;;;;;5073898;28;20036;-84
2023/08/19 12:01:03;;;;;;;2.65;1.90;;;;;;;;;;5078264;28;20029;-84
2023/08/19 12:03:29;;;;;;;2.42;1.90;;;;;;;;;;5077621;28;20094;-83
2023/08/19 12:05:54;;;;;;;3.30;2.08;;;;;;;;;;5076501;28;20501;-82
2023/08/19 12:08:32;;;;;;;1.80;1.70;;;;;;;;;;5077685;28;20050;-85
2023/08/19 12:10:58;;;;;;;3.45;1.90;;;;;;;;;;5075347;28;20496;-84
2023/08/19 12:13:24;;;;;;;2.35;1.70;;;;;;;;;;5071085;28;20462;-84
2023/08/19 12:15:50;;;;;;;1.65;1.55;;;;;;;;;;5070625;28;20035;-83
2023/08/19 12:18:18;;;;;;;2.25;2.05;;;;;;;;;;5073221;28;20020;-84
2023/08/19 12:20:45;;;;;;;3.22;1.63;;;;;;;;;;5073262;28;20020;-86
2023/08/19 12:23:10;;;;;;;1.88;1.60;;;;;;;;;;5080763;28;20024;-83
2023/08/19 12:25:50;;;;;;;2.78;1.85;;;;;;;;;;5082559;28;20040;-82
2023/08/19 12:28:16;;;;;;;3.17;1.80;;;;;;;;;;5068563;28;20036;-83
2023/08/19 12:30:41;;;;;;;1.88;1.70;;;;;;;;;;5069778;28;20084;-83
2023/08/19 12:33:08;;;;;;;2.03;1.52;;;;;;;;;;5069012;28;20045;-83
2023/08/19 12:35:36;;;;;;;3.00;2.20;;;;;;;;;;5070389;28;20121;-84
2023/08/19 12:38:04;;;;;;;1.95;1.38;;;;;;;;;;5069552;28;20573;-84
2023/08/19 12:40:29;;;;;;;1.60;1.42;;;;;;;;;;5072221;28;20059;-85
2023/08/19 12:42:55;;;;;;;2.17;1.50;;;;;;;;;;5071007;28;20060;-84
2023/08/19 12:45:20;;;;;;;1.50;1.40;;;;;;;;;;5068378;28;20090;-83
2023/08/19 12:47:46;;;;;;;8.13;1.70;;;;;;;;;;5072913;28;20064;-84
2023/08/19 12:50:12;;;;;;;2.05;1.52;;;;;;;;;;5071705;28;20441;-83
2023/08/19 12:52:38;;;;;;;2.95;1.60;;;;;;;;;;5070192;28;20024;-82
2023/08/19 12:55:03;;;;;;;1.42;1.33;;;;;;;;;;5069173;28;20156;-86
2023/08/19 12:57:29;;;;;;;2.75;1.30;;;;;;;;;;5066818;28;20127;-85
2023/08/19 12:59:55;;;;;;;3.20;1.70;;;;;;;;;;5069334;28;20106;-86
2023/08/19 13:02:20;;;;;;;2.55;1.63;;;;;;;;;;5070751;28;20017;-85
2023/08/19 13:04:45;;;;;;;2.47;1.67;;;;;;;;;;5069801;28;20139;-84
2023/08/19 13:07:47;;;;;;;2.78;1.70;;;;;;;;;;5070198;28;20411;-83
2023/08/19 13:11:06;;;;;;;3.15;1.65;;;;;;;;;;5043689;28;20032;-85
2023/08/19 13:13:53;;;;;;;3.42;1.55;;;;;;;;;;5051876;28;20036;-86
2023/08/19 13:16:18;;;;;;;2.25;1.55;;;;;;;;;;5069917;28;20029;-84
2023/08/19 13:18:50;;;;;;;2.45;1.60;;;;;;;;;;5070933;28;20128;-85
2023/08/19 13:21:15;;;;;;;3.80;1.95;;;;;;;;;;5070970;28;20450;-85
2023/08/19 13:23:41;;;;;;;2.03;1.45;;;;;;;;;;5072373;28;20056;-85
2023/08/19 13:26:06;;;;;;;3.35;2.15;;;;;;;;;;5067927;28;20135;-85
2023/08/19 13:28:32;;;;;;;2.05;1.75;;;;;;;;;;5069652;28;20094;-85
2023/08/19 13:30:57;;;;;;;2.10;1.75;;;;;;;;;;5070446;28;20058;-85
2023/08/19 13:33:23;;;;;;;2.22;2.00;;;;;;;;;;5070115;28;20024;-86
2023/08/19 13:35:48;;;;;;;3.20;1.80;;;;;;;;;;5070709;28;20100;-83
2023/08/19 13:38:13;;;;;;;3.88;2.25;;;;;;;;;;5071505;28;20055;-82
2023/08/19 13:40:38;;;;;;;2.70;2.13;;;;;;;;;;5071517;28;20036;-82
2023/08/19 13:43:04;;;;;;;2.30;2.10;;;;;;;;;;5073473;28;20419;-85
2023/08/19 13:45:29;;;;;;;1.90;1.80;;;;;;;;;;5073442;28;20594;-85
2023/08/19 13:47:55;;;;;;;3.53;2.33;;;;;;;;;;5070770;28;20036;-84
2023/08/19 13:50:20;;;;;;;3.72;1.92;;;;;;;;;;5071367;28;20024;-85
2023/08/19 13:52:47;;;;;;;4.18;2.20;;;;;;;;;;5086072;28;20012;-82
2023/08/19 13:55:13;;;;;;;2.88;2.20;;;;;;;;;;5089799;28;20088;-83
2023/08/19 13:57:40;;;;;;;2.55;1.90;;;;;;;;;;5095364;28;20044;-83
2023/08/19 14:00:10;;;;;;;2.03;1.80;;;;;;;;;;5091583;28;20092;-83
2023/08/19 14:02:37;;;;;;;2.00;1.77;;;;;;;;;;5080514;28;20017;-83
2023/08/19 14:05:03;;;;;;;2.88;2.25;;;;;;;;;;5083467;28;20024;-84
2023/08/19 14:07:28;;;;;;;2.42;2.10;;;;;;;;;;5072121;28;20028;-83
2023/08/19 14:09:54;;;;;;;1.70;1.60;;;;;;;;;;5072465;28;20688;-85
2023/08/19 14:12:19;;;;;;;1.95;1.75;;;;;;;;;;5070651;28;20033;-86
2023/08/19 14:14:44;;;;;;;2.28;2.08;;;;;;;;;;5071820;28;20032;-83
2023/08/19 14:17:10;;;;;;;2.67;2.13;;;;;;;;;;5074335;28;20024;-84
2023/08/19 14:19:35;;;;;;;3.30;1.83;;;;;;;;;;5075768;28;20028;-85
2023/08/19 14:22:01;;;;;;;2.47;1.90;;;;;;;;;;5082096;28;20052;-85
2023/08/19 14:24:26;;;;;;;1.98;1.80;;;;;;;;;;5073232;28;20066;-85
2023/08/19 14:26:52;;;;;;;3.45;2.00;;;;;;;;;;5071773;28;20024;-85
2023/08/19 14:29:17;;;;;;;2.28;1.70;;;;;;;;;;5072924;28;20028;-85
2023/08/19 14:31:42;;;;;;;2.92;2.10;;;;;;;;;;5071790;28;20052;-85
2023/08/19 14:34:07;;;;;;;3.45;1.90;;;;;;;;;;5072665;28;20115;-83
2023/08/19 14:36:33;;;;;;;2.85;2.22;;;;;;;;;;5074543;28;20074;-85
2023/08/19 14:38:59;;;;;;;4.45;2.70;;;;;;;;;;5072403;28;20486;-83
2023/08/19 14:41:24;;;;;;;2.20;2.00;;;;;;;;;;5070840;28;20035;-84
2023/08/19 14:43:50;;;;;;;2.53;1.83;;;;;;;;;;5070201;28;20020;-83
2023/08/19 14:46:15;;;;;;;2.33;2.10;;;;;;;;;;5071159;28;20023;-82